Time;durP1;ratioP1;P1;durP2;ratioP2;P2;SDS_P1;SDS_P2;PMS_P1;PMS_P2;Temp;Humidity;BMP_temperature;BMP_pressure;BME280_temperature;BME280_humidity;BME280_pressure;Samples;Min_cycle;Max_cycle;Signal;HPM_P1;HPM_P2
2021/05/27 00:01:50;;;;;;;;;;;;;;;;;;5088132;28;19955;-73
2021/05/27 00:04:15;;;;;;;;;;;;;;;;;;5074201;28;20008;-72
2021/05/27 00:06:41;;;;;;;;;;;;;;;;;;5083945;28;19914;-73
2021/05/27 00:09:07;;;;;;;;;;;;;;;;;;5073599;28;19908;-72
2021/05/27 00:11:33;;;;;;;;;;;;;;;;;;5074370;28;19951;-72
2021/05/27 00:13:59;;;;;;;;;;;;;;;;;;5086850;28;20037;-72
2021/05/27 00:16:25;;;;;;;;;;;;;;;;;;5092501;28;19916;-72
2021/05/27 00:18:53;;;;;;;;;;;;;;;;;;5092091;28;20325;-72
2021/05/27 00:21:19;;;;;;;;;;;;;;;;;;5093685;28;19919;-70
2021/05/27 00:23:45;;;;;;;;;;;;;;;;;;5089776;28;19908;-72
2021/05/27 00:26:11;;;;;;;;;;;;;;;;;;5073736;28;19946;-73
2021/05/27 00:28:37;;;;;;;;;;;;;;;;;;5090236;28;19980;-72
2021/05/27 00:31:03;;;;;;;;;;;;;;;;;;5092748;28;19908;-72
2021/05/27 00:33:29;;;;;;;;;;;;;;;;;;5083312;28;19908;-73
2021/05/27 00:35:55;;;;;;;;;;;;;;;;;;5075135;28;19911;-72
2021/05/27 00:38:21;;;;;;;;;;;;;;;;;;5073190;28;20386;-72
2021/05/27 00:40:47;;;;;;;;;;;;;;;;;;5086834;28;20354;-73
2021/05/27 00:43:12;;;;;;;;;;;;;;;;;;5086200;28;19908;-72
2021/05/27 00:45:38;;;;;;;;;;;;;;;;;;5070912;28;19905;-72
2021/05/27 00:48:04;;;;;;;;;;;;;;;;;;5087645;28;20057;-72
2021/05/27 00:50:30;;;;;;;;;;;;;;;;;;5086937;28;19912;-73
2021/05/27 00:52:56;;;;;;;;;;;;;;;;;;5073288;28;20061;-72
2021/05/27 00:55:22;;;;;;;;;;;;;;;;;;5081494;28;20357;-73
2021/05/27 00:57:48;;;;;;;;;;;;;;;;;;5090598;28;19904;-72
2021/05/27 01:00:14;;;;;;;;;;;;;;;;;;5086809;28;19916;-73
2021/05/27 01:02:40;;;;;;;;;;;;;;;;;;5073043;28;19912;-72
2021/05/27 01:05:05;;;;;;;;;;;;;;;;;;5071663;28;19908;-72
2021/05/27 01:07:31;;;;;;;;;;;;;;;;;;5074156;28;19912;-72
2021/05/27 01:09:57;;;;;;;;;;;;;;;;;;5079109;28;20713;-72
2021/05/27 01:12:23;;;;;;;;;;;;;;;;;;5091895;28;19908;-73
2021/05/27 01:17:34;;;;;;;;;;;;;;;;;;5090536;28;20012;-71
2021/05/27 01:19:59;;;;;;;;;;;;;;;;;;5080431;28;20394;-72
2021/05/27 01:22:25;;;;;;;;;;;;;;;;;;5082944;28;19919;-72
2021/05/27 01:24:51;;;;;;;;;;;;;;;;;;5076579;28;19954;-73
2021/05/27 01:27:17;;;;;;;;;;;;;;;;;;5072058;28;20453;-72
2021/05/27 01:29:43;;;;;;;;;;;;;;;;;;5071442;28;19904;-73
2021/05/27 01:32:09;;;;;;;;;;;;;;;;;;5079354;28;20289;-72
2021/05/27 01:34:35;;;;;;;;;;;;;;;;;;5090521;28;20002;-73
2021/05/27 01:37:01;;;;;;;;;;;;;;;;;;5073194;28;19920;-72
2021/05/27 01:39:26;;;;;;;;;;;;;;;;;;5071335;28;19904;-72
2021/05/27 01:41:52;;;;;;;;;;;;;;;;;;5070993;28;19928;-72
2021/05/27 01:44:18;;;;;;;;;;;;;;;;;;5070888;28;20263;-72
2021/05/27 01:46:44;;;;;;;;;;;;;;;;;;5073139;28;19999;-72
2021/05/27 01:49:10;;;;;;;;;;;;;;;;;;5071162;28;20007;-72
2021/05/27 01:51:36;;;;;;;;;;;;;;;;;;5073194;28;19962;-71
2021/05/27 01:54:02;;;;;;;;;;;;;;;;;;5091184;28;19915;-72
2021/05/27 01:56:28;;;;;;;;;;;;;;;;;;5089889;28;19958;-71
2021/05/27 01:58:53;;;;;;;;;;;;;;;;;;5086586;28;19931;-75
2021/05/27 02:01:19;;;;;;;;;;;;;;;;;;5072202;28;19916;-72
2021/05/27 02:03:45;;;;;;;;;;;;;;;;;;5080324;28;19958;-73
2021/05/27 02:06:11;;;;;;;;;;;;;;;;;;5076071;28;19909;-74
2021/05/27 02:08:37;;;;;;;;;;;;;;;;;;5076279;28;19908;-73
2021/05/27 02:11:03;;;;;;;;;;;;;;;;;;5072472;28;19908;-75
2021/05/27 02:13:29;;;;;;;;;;;;;;;;;;5079026;28;19908;-74
2021/05/27 02:15:55;;;;;;;;;;;;;;;;;;5089069;28;20329;-75
2021/05/27 02:18:21;;;;;;;;;;;;;;;;;;5076251;28;19908;-74
2021/05/27 02:20:47;;;;;;;;;;;;;;;;;;5077410;28;19916;-75
2021/05/27 02:23:13;;;;;;;;;;;;;;;;;;5076713;28;20018;-74
2021/05/27 02:25:39;;;;;;;;;;;;;;;;;;5088049;28;19908;-73
2021/05/27 02:28:05;;;;;;;;;;;;;;;;;;5084936;28;19962;-75
2021/05/27 02:30:30;;;;;;;;;;;;;;;;;;5073648;28;19915;-75
2021/05/27 02:32:56;;;;;;;;;;;;;;;;;;5082796;28;19915;-74
2021/05/27 02:35:22;;;;;;;;;;;;;;;;;;5072987;28;19959;-75
2021/05/27 02:37:48;;;;;;;;;;;;;;;;;;5074925;28;19930;-74
2021/05/27 02:40:14;;;;;;;;;;;;;;;;;;5085494;28;19919;-74
2021/05/27 02:42:40;;;;;;;;;;;;;;;;;;5077073;28;19920;-75
2021/05/27 02:45:06;;;;;;;;;;;;;;;;;;5091959;28;19963;-75
2021/05/27 02:47:32;;;;;;;;;;;;;;;;;;5075959;28;19919;-75
2021/05/27 02:49:57;;;;;;;;;;;;;;;;;;5074796;28;19912;-74
2021/05/27 02:52:23;;;;;;;;;;;;;;;;;;5077645;28;20298;-74
2021/05/27 02:54:49;;;;;;;;;;;;;;;;;;5094279;28;19908;-75
2021/05/27 02:57:15;;;;;;;;;;;;;;;;;;5077328;28;20364;-74
2021/05/27 02:59:41;;;;;;;;;;;;;;;;;;5076598;28;19908;-73
2021/05/27 03:02:07;;;;;;;;;;;;;;;;;;5092541;28;19962;-74
2021/05/27 03:04:33;;;;;;;;;;;;;;;;;;5091046;28;19912;-74
2021/05/27 03:06:59;;;;;;;;;;;;;;;;;;5073618;28;19953;-74
2021/05/27 03:09:24;;;;;;;;;;;;;;;;;;5078187;28;19908;-74
2021/05/27 03:11:53;;;;;;;;;;;;;;;;;;5092240;28;20342;-74
2021/05/27 03:14:19;;;;;;;;;;;;;;;;;;5092279;28;19908;-74
2021/05/27 03:16:45;;;;;;;;;;;;;;;;;;5087523;28;19916;-74
2021/05/27 03:19:11;;;;;;;;;;;;;;;;;;5084120;28;19909;-75
2021/05/27 03:21:36;;;;;;;;;;;;;;;;;;5085159;28;19917;-71
2021/05/27 03:24:02;;;;;;;;;;;;;;;;;;5072640;28;19904;-74
2021/05/27 03:26:28;;;;;;;;;;;;;;;;;;5083889;28;20415;-75
2021/05/27 03:28:54;;;;;;;;;;;;;;;;;;5093166;28;19912;-74
2021/05/27 03:31:20;;;;;;;;;;;;;;;;;;5075671;28;20266;-74
2021/05/27 03:33:46;;;;;;;;;;;;;;;;;;5092105;28;19949;-75
2021/05/27 03:36:12;;;;;;;;;;;;;;;;;;5084279;28;19908;-74
2021/05/27 03:38:38;;;;;;;;;;;;;;;;;;5079957;28;19912;-73
2021/05/27 03:41:03;;;;;;;;;;;;;;;;;;5082965;28;20371;-75
2021/05/27 03:43:29;;;;;;;;;;;;;;;;;;5073985;28;19911;-75
2021/05/27 03:45:55;;;;;;;;;;;;;;;;;;5079886;28;20476;-74
2021/05/27 03:48:21;;;;;;;;;;;;;;;;;;5073232;28;19920;-74
2021/05/27 03:50:47;;;;;;;;;;;;;;;;;;5074668;28;19991;-75
2021/05/27 03:53:13;;;;;;;;;;;;;;;;;;5075037;28;19909;-74
2021/05/27 03:55:39;;;;;;;;;;;;;;;;;;5074091;28;19909;-73
2021/05/27 04:00:41;;;;;;;;;;;;;;;;;;5080950;28;20399;-75
2021/05/27 04:00:50;;;;;;;;;;;;;;;;;;5073899;28;20492;-74
2021/05/27 04:03:16;;;;;;;;;;;;;;;;;;5091309;28;19922;-74
2021/05/27 04:08:27;;;;;;;;;;;;;;;;;;5072348;28;19915;-74
2021/05/27 04:10:53;;;;;;;;;;;;;;;;;;5074137;28;19905;-75
2021/05/27 04:13:19;;;;;;;;;;;;;;;;;;5075032;28;19908;-74
2021/05/27 04:15:44;;;;;;;;;;;;;;;;;;5072629;28;20294;-74
2021/05/27 04:18:10;;;;;;;;;;;;;;;;;;5075074;28;20331;-74
2021/05/27 04:20:36;;;;;;;;;;;;;;;;;;5089065;28;20361;-75
2021/05/27 04:23:02;;;;;;;;;;;;;;;;;;5074012;28;19916;-74
2021/05/27 04:25:28;;;;;;;;;;;;;;;;;;5092141;28;19911;-74
2021/05/27 04:27:54;;;;;;;;;;;;;;;;;;5078717;28;20370;-74
2021/05/27 04:30:20;;;;;;;;;;;;;;;;;;5083210;28;19944;-74
2021/05/27 04:35:24;;;;;;;;;;;;;;;;;;5083664;28;19912;-75
2021/05/27 04:37:50;;;;;;;;;;;;;;;;;;5092080;28;19908;-74
2021/05/27 04:40:16;;;;;;;;;;;;;;;;;;5084908;28;20018;-74
2021/05/27 04:42:42;;;;;;;;;;;;;;;;;;5072427;28;20046;-74
2021/05/27 04:45:08;;;;;;;;;;;;;;;;;;5072732;28;20014;-74
2021/05/27 04:47:34;;;;;;;;;;;;;;;;;;5076893;28;19916;-73
2021/05/27 04:50:00;;;;;;;;;;;;;;;;;;5092419;28;19915;-72
2021/05/27 04:52:25;;;;;;;;;;;;;;;;;;5074670;28;20378;-73
2021/05/27 04:54:51;;;;;;;;;;;;;;;;;;5086577;28;19962;-73
2021/05/27 04:57:17;;;;;;;;;;;;;;;;;;5088848;28;20747;-72
2021/05/27 04:59:43;;;;;;;;;;;;;;;;;;5071871;28;19908;-72
2021/05/27 05:02:09;;;;;;;;;;;;;;;;;;5083661;28;20251;-73
2021/05/27 05:04:35;;;;;;;;;;;;;;;;;;5090384;28;19965;-73
2021/05/27 05:07:01;;;;;;;;;;;;;;;;;;5071826;28;20002;-72
2021/05/27 05:09:27;;;;;;;;;;;;;;;;;;5074569;28;19908;-71
2021/05/27 05:11:52;;;;;;;;;;;;;;;;;;5091381;28;19908;-73
2021/05/27 05:14:18;;;;;;;;;;;;;;;;;;5090083;28;19939;-72
2021/05/27 05:16:44;;;;;;;;;;;;;;;;;;5091919;28;19967;-72
2021/05/27 05:19:10;;;;;;;;;;;;;;;;;;5090378;28;20058;-73
2021/05/27 05:21:36;;;;;;;;;;;;;;;;;;5091548;28;19939;-73
2021/05/27 05:24:02;;;;;;;;;;;;;;;;;;5073351;28;19950;-72
2021/05/27 05:26:28;;;;;;;;;;;;;;;;;;5073809;28;19968;-73
2021/05/27 05:28:54;;;;;;;;;;;;;;;;;;5081352;28;19907;-73
2021/05/27 05:31:19;;;;;;;;;;;;;;;;;;5081894;28;20462;-72
2021/05/27 05:33:45;;;;;;;;;;;;;;;;;;5089323;28;19912;-72
2021/05/27 05:36:11;;;;;;;;;;;;;;;;;;5091868;28;19991;-73
2021/05/27 05:38:37;;;;;;;;;;;;;;;;;;5075554;28;20685;-72
2021/05/27 05:41:04;;;;;;;;;;;;;;;;;;5089204;28;19959;-73
2021/05/27 05:43:30;;;;;;;;;;;;;;;;;;5078076;28;19935;-73
2021/05/27 05:45:55;;;;;;;;;;;;;;;;;;5077424;28;19912;-73
2021/05/27 05:48:21;;;;;;;;;;;;;;;;;;5070748;28;19966;-72
2021/05/27 05:53:14;;;;;;;;;;;;;;;;;;5081734;28;19911;-72
2021/05/27 05:55:40;;;;;;;;;;;;;;;;;;5090998;28;19915;-72
2021/05/27 05:58:06;;;;;;;;;;;;;;;;;;5073334;28;19908;-73
2021/05/27 06:00:32;;;;;;;;;;;;;;;;;;5070877;28;19913;-72
2021/05/27 06:02:58;;;;;;;;;;;;;;;;;;5070746;28;19914;-73
2021/05/27 06:05:24;;;;;;;;;;;;;;;;;;5070753;28;20085;-73
2021/05/27 06:07:49;;;;;;;;;;;;;;;;;;5070341;28;19908;-73
2021/05/27 06:10:15;;;;;;;;;;;;;;;;;;5069777;28;19904;-73
2021/05/27 06:12:41;;;;;;;;;;;;;;;;;;5080691;28;19954;-73
2021/05/27 06:15:07;;;;;;;;;;;;;;;;;;5085082;28;20354;-73
2021/05/27 06:17:33;;;;;;;;;;;;;;;;;;5075239;28;19915;-72
2021/05/27 06:19:59;;;;;;;;;;;;;;;;;;5070625;28;20275;-73
2021/05/27 06:22:25;;;;;;;;;;;;;;;;;;5070484;28;19916;-72
2021/05/27 06:24:51;;;;;;;;;;;;;;;;;;5071366;28;20374;-73
2021/05/27 06:27:16;;;;;;;;;;;;;;;;;;5070899;28;19908;-72
2021/05/27 06:29:42;;;;;;;;;;;;;;;;;;5079613;28;20317;-73
2021/05/27 06:32:08;;;;;;;;;;;;;;;;;;5084966;28;19908;-72
2021/05/27 06:34:34;;;;;;;;;;;;;;;;;;5084055;28;19908;-73
2021/05/27 06:37:00;;;;;;;;;;;;;;;;;;5075554;28;19931;-72
2021/05/27 06:39:26;;;;;;;;;;;;;;;;;;5070393;28;19905;-73
2021/05/27 06:41:55;;;;;;;;;;;;;;;;;;5078437;28;19927;-73
2021/05/27 06:44:21;;;;;;;;;;;;;;;;;;5077426;28;19919;-72
2021/05/27 06:46:47;;;;;;;;;;;;;;;;;;5085574;28;19908;-72
2021/05/27 06:49:13;;;;;;;;;;;;;;;;;;5090148;28;19916;-73
2021/05/27 06:51:40;;;;;;;;;;;;;;;;;;5071497;28;19913;-72
2021/05/27 06:54:06;;;;;;;;;;;;;;;;;;5070036;28;19916;-72
2021/05/27 06:56:32;;;;;;;;;;;;;;;;;;5081001;28;20308;-72
2021/05/27 06:58:58;;;;;;;;;;;;;;;;;;5073942;28;20000;-72
2021/05/27 07:01:24;;;;;;;;;;;;;;;;;;5076544;28;19923;-72
2021/05/27 07:03:50;;;;;;;;;;;;;;;;;;5089933;28;20380;-72
2021/05/27 07:06:16;;;;;;;;;;;;;;;;;;5076706;28;19955;-73
2021/05/27 07:08:42;;;;;;;;;;;;;;;;;;5083735;28;19986;-72
2021/05/27 07:11:08;;;;;;;;;;;;;;;;;;5076705;28;19908;-73
2021/05/27 07:13:34;;;;;;;;;;;;;;;;;;5070344;28;19909;-72
2021/05/27 07:15:59;;;;;;;;;;;;;;;;;;5072069;28;19948;-72
2021/05/27 07:18:25;;;;;;;;;;;;;;;;;;5071566;28;20399;-72
2021/05/27 07:20:51;;;;;;;;;;;;;;;;;;5070704;28;19912;-72
2021/05/27 07:23:18;;;;;;;;;;;;;;;;;;5073801;28;19912;-73
2021/05/27 07:25:44;;;;;;;;;;;;;;;;;;5072662;28;19905;-72
2021/05/27 07:28:10;;;;;;;;;;;;;;;;;;5073258;28;19951;-73
2021/05/27 07:30:36;;;;;;;;;;;;;;;;;;5073632;28;19950;-72
2021/05/27 07:33:02;;;;;;;;;;;;;;;;;;5073613;28;19927;-72
2021/05/27 07:35:28;;;;;;;;;;;;;;;;;;5073797;28;19905;-72
2021/05/27 07:37:54;;;;;;;;;;;;;;;;;;5074040;28;20022;-72
2021/05/27 07:40:20;;;;;;;;;;;;;;;;;;5073148;28;20011;-73
2021/05/27 07:42:46;;;;;;;;;;;;;;;;;;5073776;28;20389;-73
2021/05/27 07:45:11;;;;;;;;;;;;;;;;;;5073491;28;20495;-72
2021/05/27 07:47:37;;;;;;;;;;;;;;;;;;5073383;28;19982;-71
2021/05/27 07:50:03;;;;;;;;;;;;;;;;;;5071762;28;19999;-72
2021/05/27 07:52:29;;;;;;;;;;;;;;;;;;5073264;28;20003;-72
2021/05/27 07:54:55;;;;;;;;;;;;;;;;;;5073375;28;19908;-72
2021/05/27 07:57:21;;;;;;;;;;;;;;;;;;5073278;28;20016;-72
2021/05/27 07:59:47;;;;;;;;;;;;;;;;;;5073059;28;19911;-72
2021/05/27 08:02:13;;;;;;;;;;;;;;;;;;5073168;28;19920;-73
2021/05/27 08:04:42;;;;;;;;;;;;;;;;;;5072644;28;19908;-72
2021/05/27 08:07:08;;;;;;;;;;;;;;;;;;5072044;28;19916;-73
2021/05/27 08:09:33;;;;;;;;;;;;;;;;;;5072929;28;19905;-72
2021/05/27 08:11:59;;;;;;;;;;;;;;;;;;5072916;28;19909;-72
2021/05/27 08:14:25;;;;;;;;;;;;;;;;;;5073427;28;19904;-73
2021/05/27 08:16:51;;;;;;;;;;;;;;;;;;5073183;28;20407;-72
2021/05/27 08:19:17;;;;;;;;;;;;;;;;;;5072769;28;19958;-73
2021/05/27 08:21:43;;;;;;;;;;;;;;;;;;5072291;28;19919;-72
2021/05/27 08:24:09;;;;;;;;;;;;;;;;;;5072713;28;19904;-72
2021/05/27 08:26:35;;;;;;;;;;;;;;;;;;5072751;28;19999;-73
2021/05/27 08:29:00;;;;;;;;;;;;;;;;;;5072701;28;20388;-72
2021/05/27 08:31:26;;;;;;;;;;;;;;;;;;5072342;28;19904;-72
2021/05/27 08:33:52;;;;;;;;;;;;;;;;;;5071659;28;19999;-73
2021/05/27 08:36:18;;;;;;;;;;;;;;;;;;5079429;28;19972;-73
2021/05/27 08:38:44;;;;;;;;;;;;;;;;;;5092879;28;20251;-73
2021/05/27 08:41:10;;;;;;;;;;;;;;;;;;5092068;28;19926;-72
2021/05/27 08:43:36;;;;;;;;;;;;;;;;;;5092769;28;19995;-73
2021/05/27 08:46:02;;;;;;;;;;;;;;;;;;5071913;28;19924;-72
2021/05/27 08:48:28;;;;;;;;;;;;;;;;;;5070983;28;19916;-73
2021/05/27 08:50:54;;;;;;;;;;;;;;;;;;5074352;28;20239;-72
2021/05/27 08:53:20;;;;;;;;;;;;;;;;;;5086590;28;19951;-72
2021/05/27 08:55:46;;;;;;;;;;;;;;;;;;5088798;28;19915;-73
2021/05/27 08:58:11;;;;;;;;;;;;;;;;;;5080603;28;19904;-72
2021/05/27 09:00:37;;;;;;;;;;;;;;;;;;5092321;28;20376;-73
2021/05/27 09:03:03;;;;;;;;;;;;;;;;;;5092111;28;19904;-74
2021/05/27 09:05:31;;;;;;;;;;;;;;;;;;5091388;28;19911;-73
2021/05/27 09:07:57;;;;;;;;;;;;;;;;;;5071801;28;20362;-73
2021/05/27 09:10:23;;;;;;;;;;;;;;;;;;5072155;28;19911;-74
2021/05/27 09:12:49;;;;;;;;;;;;;;;;;;5071815;28;19905;-74
2021/05/27 09:15:15;;;;;;;;;;;;;;;;;;5071802;28;20434;-74
2021/05/27 09:17:40;;;;;;;;;;;;;;;;;;5071741;28;19914;-73
2021/05/27 09:20:06;;;;;;;;;;;;;;;;;;5070234;28;20270;-73
2021/05/27 09:22:32;;;;;;;;;;;;;;;;;;5072659;28;19916;-72
2021/05/27 09:24:58;;;;;;;;;;;;;;;;;;5091286;28;20417;-72
2021/05/27 09:27:24;;;;;;;;;;;;;;;;;;5091009;28;19918;-72
2021/05/27 09:29:50;;;;;;;;;;;;;;;;;;5079091;28;20370;-72
2021/05/27 09:32:16;;;;;;;;;;;;;;;;;;5081488;28;19955;-72
2021/05/27 09:34:42;;;;;;;;;;;;;;;;;;5070973;28;19915;-72
2021/05/27 09:37:08;;;;;;;;;;;;;;;;;;5083784;28;19915;-72
2021/05/27 09:39:33;;;;;;;;;;;;;;;;;;5071673;28;20065;-72
2021/05/27 09:41:59;;;;;;;;;;;;;;;;;;5078394;28;19988;-72
2021/05/27 09:44:25;;;;;;;;;;;;;;;;;;5076608;28;19908;-71
2021/05/27 09:46:51;;;;;;;;;;;;;;;;;;5072130;28;19920;-72
2021/05/27 09:49:22;;;;;;;;;;;;;;;;;;5080026;28;19959;-72
2021/05/27 09:51:48;;;;;;;;;;;;;;;;;;5088187;28;19908;-71
2021/05/27 09:54:14;;;;;;;;;;;;;;;;;;5090748;28;19911;-71
2021/05/27 09:56:40;;;;;;;;;;;;;;;;;;5091222;28;20337;-70
2021/05/27 09:59:06;;;;;;;;;;;;;;;;;;5085615;28;19916;-71
2021/05/27 10:01:32;;;;;;;;;;;;;;;;;;5078690;28;20361;-71
2021/05/27 10:03:58;;;;;;;;;;;;;;;;;;5070713;28;20022;-71
2021/05/27 10:06:23;;;;;;;;;;;;;;;;;;5088137;28;19980;-71
2021/05/27 10:08:49;;;;;;;;;;;;;;;;;;5082342;28;19918;-71
2021/05/27 10:11:15;;;;;;;;;;;;;;;;;;5070565;28;19908;-70
2021/05/27 10:13:41;;;;;;;;;;;;;;;;;;5072264;28;19908;-71
2021/05/27 10:16:07;;;;;;;;;;;;;;;;;;5076274;28;19908;-71
2021/05/27 10:18:33;;;;;;;;;;;;;;;;;;5075597;28;19915;-71
2021/05/27 10:20:59;;;;;;;;;;;;;;;;;;5085258;28;19957;-71
2021/05/27 10:23:25;;;;;;;;;;;;;;;;;;5090732;28;19951;-71
2021/05/27 10:25:52;;;;;;;;;;;;;;;;;;5087909;28;20338;-72
2021/05/27 10:28:18;;;;;;;;;;;;;;;;;;5082389;28;19911;-70
2021/05/27 10:30:44;;;;;;;;;;;;;;;;;;5075392;28;19915;-71
2021/05/27 10:33:17;;;;;;;;;;;;;;;;;;5083102;28;20465;-71
2021/05/27 10:35:43;;;;;;;;;;;;;;;;;;5079260;28;19912;-69
2021/05/27 10:38:08;;;;;;;;;;;;;;;;;;5070205;28;20368;-69
2021/05/27 10:40:34;;;;;;;;;;;;;;;;;;5088508;28;19908;-71
2021/05/27 10:43:13;;;;;;;;;;;;;;;;;;5078127;28;20007;-71
2021/05/27 10:45:39;;;;;;;;;;;;;;;;;;5085166;28;19912;-71
2021/05/27 10:48:05;;;;;;;;;;;;;;;;;;5086392;28;19927;-70
2021/05/27 10:50:31;;;;;;;;;;;;;;;;;;5083755;28;19951;-69
2021/05/27 10:52:57;;;;;;;;;;;;;;;;;;5073903;28;19915;-69
2021/05/27 10:55:22;;;;;;;;;;;;;;;;;;5081900;28;20007;-69
2021/05/27 10:57:48;;;;;;;;;;;;;;;;;;5077856;28;19969;-70
2021/05/27 11:00:14;;;;;;;;;;;;;;;;;;5085315;28;19908;-70
2021/05/27 11:02:40;;;;;;;;;;;;;;;;;;5075341;28;19931;-70
2021/05/27 11:05:06;;;;;;;;;;;;;;;;;;5078136;28;20393;-70
2021/05/27 11:07:32;;;;;;;;;;;;;;;;;;5077716;28;19908;-69
2021/05/27 11:09:58;;;;;;;;;;;;;;;;;;5075415;28;20704;-71
2021/05/27 11:12:24;;;;;;;;;;;;;;;;;;5076353;28;19924;-70
2021/05/27 11:14:50;;;;;;;;;;;;;;;;;;5073650;28;19926;-71
2021/05/27 11:17:18;;;;;;;;;;;;;;;;;;5076320;28;19908;-70
2021/05/27 11:22:25;;;;;;;;;;;;;;;;;;5075484;28;19919;-70
2021/05/27 11:24:51;;;;;;;;;;;;;;;;;;5076215;28;20001;-70
2021/05/27 11:27:17;;;;;;;;;;;;;;;;;;5087187;28;19904;-71
2021/05/27 11:29:43;;;;;;;;;;;;;;;;;;5073246;28;20412;-69
2021/05/27 11:32:09;;;;;;;;;;;;;;;;;;5084332;28;19911;-71
2021/05/27 11:34:34;;;;;;;;;;;;;;;;;;5078064;28;19912;-71
2021/05/27 11:37:01;;;;;;;;;;;;;;;;;;5073550;28;19940;-71
2021/05/27 11:39:27;;;;;;;;;;;;;;;;;;5074587;28;19916;-70
2021/05/27 11:41:53;;;;;;;;;;;;;;;;;;5073132;28;19912;-70
2021/05/27 11:44:19;;;;;;;;;;;;;;;;;;5075817;28;20274;-70
2021/05/27 11:46:45;;;;;;;;;;;;;;;;;;5093860;28;19912;-70
2021/05/27 11:49:10;;;;;;;;;;;;;;;;;;5093478;28;20015;-72
2021/05/27 11:51:37;;;;;;;;;;;;;;;;;;5093614;28;19904;-70
2021/05/27 11:54:03;;;;;;;;;;;;;;;;;;5093812;28;20234;-71
2021/05/27 11:56:30;;;;;;;;;;;;;;;;;;5093509;28;19949;-70
2021/05/27 11:58:56;;;;;;;;;;;;;;;;;;5093659;28;19998;-71
2021/05/27 12:01:22;;;;;;;;;;;;;;;;;;5091469;28;20011;-71
2021/05/27 12:03:48;;;;;;;;;;;;;;;;;;5091640;28;19925;-71
2021/05/27 12:06:14;;;;;;;;;;;;;;;;;;5092923;28;19908;-71
2021/05/27 12:08:40;;;;;;;;;;;;;;;;;;5092774;28;20351;-70
2021/05/27 12:11:05;;;;;;;;;;;;;;;;;;5093360;28;20003;-70
2021/05/27 12:13:31;;;;;;;;;;;;;;;;;;5091911;28;20281;-71
2021/05/27 12:15:57;;;;;;;;;;;;;;;;;;5093385;28;19914;-71
2021/05/27 12:18:23;;;;;;;;;;;;;;;;;;5093586;28;20000;-71
2021/05/27 12:20:50;;;;;;;;;;;;;;;;;;5092446;28;19908;-71
2021/05/27 12:23:16;;;;;;;;;;;;;;;;;;5092812;28;19911;-71
2021/05/27 12:25:43;;;;;;;;;;;;;;;;;;5092805;28;20002;-71
2021/05/27 12:28:08;;;;;;;;;;;;;;;;;;5092829;28;19927;-71
2021/05/27 12:30:35;;;;;;;;;;;;;;;;;;5093134;28;20359;-70
2021/05/27 12:33:01;;;;;;;;;;;;;;;;;;5092599;28;20331;-71
2021/05/27 12:35:27;;;;;;;;;;;;;;;;;;5078310;28;19940;-71
2021/05/27 12:37:58;;;;;;;;;;;;;;;;;;5084923;28;19903;-72
2021/05/27 12:40:25;;;;;;;;;;;;;;;;;;5092732;28;19904;-72
2021/05/27 12:42:51;;;;;;;;;;;;;;;;;;5092470;28;19915;-69
2021/05/27 12:45:17;;;;;;;;;;;;;;;;;;5092095;28;19904;-69
2021/05/27 12:47:43;;;;;;;;;;;;;;;;;;5092175;28;19916;-68
2021/05/27 12:50:08;;;;;;;;;;;;;;;;;;5092529;28;19904;-69
2021/05/27 12:52:34;;;;;;;;;;;;;;;;;;5092466;28;20003;-69
2021/05/27 12:55:00;;;;;;;;;;;;;;;;;;5092606;28;19908;-69
2021/05/27 12:57:26;;;;;;;;;;;;;;;;;;5091945;28;19904;-71
2021/05/27 12:59:52;;;;;;;;;;;;;;;;;;5092472;28;19911;-70
2021/05/27 13:02:18;;;;;;;;;;;;;;;;;;5091866;28;20543;-70
2021/05/27 13:04:44;;;;;;;;;;;;;;;;;;5091698;28;19908;-71
2021/05/27 13:07:10;;;;;;;;;;;;;;;;;;5092109;28;19962;-72
2021/05/27 13:09:36;;;;;;;;;;;;;;;;;;5091734;28;19976;-71
2021/05/27 13:12:01;;;;;;;;;;;;;;;;;;5086876;28;20239;-69
2021/05/27 13:14:27;;;;;;;;;;;;;;;;;;5080643;28;19911;-69
2021/05/27 13:16:53;;;;;;;;;;;;;;;;;;5091505;28;19908;-70
2021/05/27 13:19:19;;;;;;;;;;;;;;;;;;5090627;28;19960;-69
2021/05/27 13:21:45;;;;;;;;;;;;;;;;;;5082788;28;19923;-69
2021/05/27 13:24:11;;;;;;;;;;;;;;;;;;5070149;28;20413;-70
2021/05/27 13:26:39;;;;;;;;;;;;;;;;;;5083347;28;20041;-69
2021/05/27 13:29:04;;;;;;;;;;;;;;;;;;5091828;28;20266;-69
2021/05/27 13:31:30;;;;;;;;;;;;;;;;;;5091352;28;19963;-69
2021/05/27 13:33:56;;;;;;;;;;;;;;;;;;5090438;28;19915;-71
2021/05/27 13:36:22;;;;;;;;;;;;;;;;;;5091394;28;19957;-70
2021/05/27 13:38:48;;;;;;;;;;;;;;;;;;5091594;28;19900;-70
2021/05/27 13:41:14;;;;;;;;;;;;;;;;;;5086647;28;19952;-69
2021/05/27 13:43:40;;;;;;;;;;;;;;;;;;5081349;28;19904;-69
2021/05/27 13:46:06;;;;;;;;;;;;;;;;;;5091249;28;20320;-70
2021/05/27 13:48:32;;;;;;;;;;;;;;;;;;5073884;28;19916;-70
2021/05/27 13:50:58;;;;;;;;;;;;;;;;;;5071025;28;19986;-71
2021/05/27 13:53:25;;;;;;;;;;;;;;;;;;5071495;28;19908;-70
2021/05/27 13:55:53;;;;;;;;;;;;;;;;;;5070750;28;19908;-71
2021/05/27 13:58:19;;;;;;;;;;;;;;;;;;5085226;28;20002;-70
2021/05/27 14:00:45;;;;;;;;;;;;;;;;;;5090937;28;19916;-71
2021/05/27 14:03:11;;;;;;;;;;;;;;;;;;5089545;28;20334;-72
2021/05/27 14:05:37;;;;;;;;;;;;;;;;;;5074700;28;19917;-71
2021/05/27 14:08:03;;;;;;;;;;;;;;;;;;5078618;28;19990;-71
2021/05/27 14:10:29;;;;;;;;;;;;;;;;;;5091084;28;20374;-72
2021/05/27 14:12:54;;;;;;;;;;;;;;;;;;5077779;28;19912;-71
2021/05/27 14:15:20;;;;;;;;;;;;;;;;;;5083204;28;19918;-71
2021/05/27 14:17:46;;;;;;;;;;;;;;;;;;5090591;28;19905;-71
2021/05/27 14:20:12;;;;;;;;;;;;;;;;;;5091450;28;19904;-71
2021/05/27 14:22:39;;;;;;;;;;;;;;;;;;5086254;28;20341;-71
2021/05/27 14:25:05;;;;;;;;;;;;;;;;;;5081201;28;19923;-71
2021/05/27 14:27:31;;;;;;;;;;;;;;;;;;5090595;28;19990;-69
2021/05/27 14:29:57;;;;;;;;;;;;;;;;;;5089286;28;19915;-70
2021/05/27 14:32:22;;;;;;;;;;;;;;;;;;5089791;28;19908;-70
2021/05/27 14:34:48;;;;;;;;;;;;;;;;;;5078241;28;19952;-70
2021/05/27 14:37:14;;;;;;;;;;;;;;;;;;5081100;28;20212;-71
2021/05/27 14:39:41;;;;;;;;;;;;;;;;;;5073259;28;19916;-70
2021/05/27 14:42:07;;;;;;;;;;;;;;;;;;5091454;28;19912;-70
2021/05/27 14:44:33;;;;;;;;;;;;;;;;;;5088533;28;20334;-70
2021/05/27 14:46:59;;;;;;;;;;;;;;;;;;5090464;28;19990;-70
2021/05/27 14:49:25;;;;;;;;;;;;;;;;;;5090349;28;20316;-70
2021/05/27 14:51:51;;;;;;;;;;;;;;;;;;5088754;28;19954;-69
2021/05/27 14:54:17;;;;;;;;;;;;;;;;;;5075072;28;20354;-70
2021/05/27 14:56:43;;;;;;;;;;;;;;;;;;5082088;28;19904;-70
2021/05/27 14:59:09;;;;;;;;;;;;;;;;;;5089899;28;19910;-71
2021/05/27 15:01:35;;;;;;;;;;;;;;;;;;5090951;28;20006;-71
2021/05/27 15:04:01;;;;;;;;;;;;;;;;;;5087212;28;20281;-71
2021/05/27 15:06:27;;;;;;;;;;;;;;;;;;5090429;28;19908;-71
2021/05/27 15:08:53;;;;;;;;;;;;;;;;;;5089455;28;20273;-71
2021/05/27 15:11:19;;;;;;;;;;;;;;;;;;5089639;28;19953;-71
2021/05/27 15:13:44;;;;;;;;;;;;;;;;;;5086840;28;20323;-71
2021/05/27 15:16:12;;;;;;;;;;;;;;;;;;5075327;28;20416;-71
2021/05/27 15:18:38;;;;;;;;;;;;;;;;;;5072340;28;19912;-70
2021/05/27 15:21:03;;;;;;;;;;;;;;;;;;5078074;28;20263;-72
2021/05/27 15:23:29;;;;;;;;;;;;;;;;;;5090176;28;19947;-72
2021/05/27 15:25:55;;;;;;;;;;;;;;;;;;5073185;28;20276;-71
2021/05/27 15:28:21;;;;;;;;;;;;;;;;;;5075631;28;19953;-72
2021/05/27 15:30:47;;;;;;;;;;;;;;;;;;5076747;28;19997;-72
2021/05/27 15:33:13;;;;;;;;;;;;;;;;;;5075334;28;19908;-72
2021/05/27 15:35:39;;;;;;;;;;;;;;;;;;5088690;28;20738;-72
2021/05/27 15:38:05;;;;;;;;;;;;;;;;;;5086238;28;19912;-72
2021/05/27 15:40:31;;;;;;;;;;;;;;;;;;5071064;28;19904;-72
2021/05/27 15:42:58;;;;;;;;;;;;;;;;;;5079349;28;20239;-71
2021/05/27 15:45:24;;;;;;;;;;;;;;;;;;5073991;28;19904;-72
2021/05/27 15:47:50;;;;;;;;;;;;;;;;;;5074522;28;19923;-71
2021/05/27 15:50:16;;;;;;;;;;;;;;;;;;5075579;28;20560;-73
2021/05/27 15:52:42;;;;;;;;;;;;;;;;;;5075716;28;19908;-72
2021/05/27 15:55:10;;;;;;;;;;;;;;;;;;5073762;28;19920;-72
2021/05/27 15:57:35;;;;;;;;;;;;;;;;;;5073758;28;19904;-72
2021/05/27 16:00:01;;;;;;;;;;;;;;;;;;5074307;28;20259;-72
2021/05/27 16:02:28;;;;;;;;;;;;;;;;;;5074091;28;19912;-71
2021/05/27 16:04:53;;;;;;;;;;;;;;;;;;5078171;28;19909;-73
2021/05/27 16:07:21;;;;;;;;;;;;;;;;;;5087071;28;19918;-72
2021/05/27 16:09:47;;;;;;;;;;;;;;;;;;5072739;28;19915;-73
2021/05/27 16:12:13;;;;;;;;;;;;;;;;;;5077537;28;19908;-72
2021/05/27 16:14:39;;;;;;;;;;;;;;;;;;5080135;28;20737;-72
2021/05/27 16:17:05;;;;;;;;;;;;;;;;;;5072213;28;19905;-73
2021/05/27 16:19:31;;;;;;;;;;;;;;;;;;5072646;28;19904;-73
2021/05/27 16:21:57;;;;;;;;;;;;;;;;;;5073816;28;19924;-74
2021/05/27 16:24:23;;;;;;;;;;;;;;;;;;5080900;28;19908;-74
2021/05/27 16:26:49;;;;;;;;;;;;;;;;;;5084182;28;19930;-74
2021/05/27 16:29:14;;;;;;;;;;;;;;;;;;5079966;28;19911;-73
2021/05/27 16:31:40;;;;;;;;;;;;;;;;;;5077902;28;19938;-74
2021/05/27 16:34:11;;;;;;;;;;;;;;;;;;5071786;28;19908;-74
2021/05/27 16:39:21;;;;;;;;;;;;;;;;;;5086798;28;19918;-74
2021/05/27 16:41:47;;;;;;;;;;;;;;;;;;5072294;28;19913;-74
2021/05/27 16:44:13;;;;;;;;;;;;;;;;;;5101751;27;20324;-74
2021/05/27 16:46:39;;;;;;;;;;;;;;;;;;5080274;28;19946;-74
2021/05/27 16:49:05;;;;;;;;;;;;;;;;;;5076504;28;19941;-75
2021/05/27 16:51:31;;;;;;;;;;;;;;;;;;5081129;28;20037;-75
2021/05/27 16:53:57;;;;;;;;;;;;;;;;;;5082006;28;19912;-73